Terminal Aerodrome Forecast
Issued by NWS

Home | Current Version | Previous Version | Graphics & Text | Print | Product List | Glossary Off
Versions: 1 2 3 4 5 6 7 8 9 10 11 12 13 14 15 16 17 18 19 20

131
FTUS43 KGRB 252325
TAFMTW
TAF
KMTW 252325Z 2600/2624 05010G18KT 5SM -RA BR OVC006
     FM260200 04008G16KT 4SM -RA BR OVC006
      TEMPO 2603/2607 3SM -RA BR
     FM260700 04008KT 2SM -DZ BR OVC003
     FM261800 03008KT 3SM -RA BR OVC005=

USA.gov is the U.S. government's official web portal to all federal, state and local government web resources and services.